createdAt,value
2018-03-31T00:00:57.552Z,86.18
2018-03-31T00:02:50.457Z,86.18
2018-03-31T00:03:50.473Z,86.80
2018-03-31T00:05:43.399Z,86.70
2018-03-31T00:06:43.394Z,86.80
2018-03-31T00:08:36.294Z,87.75
2018-03-31T00:09:36.310Z,87.85
2018-03-31T00:11:29.229Z,88.60
2018-03-31T00:12:29.230Z,88.51
2018-03-31T00:14:22.320Z,88.51
2018-03-31T00:15:22.346Z,88.04
2018-03-31T00:17:15.222Z,87.98
2018-03-31T00:18:15.250Z,87.89
2018-03-31T00:20:08.171Z,88.27
2018-03-31T00:21:08.176Z,87.89
2018-03-31T00:23:01.074Z,87.89
2018-03-31T00:24:01.094Z,88.18
2018-03-31T00:25:54.011Z,88.08
2018-03-31T00:26:54.010Z,87.79
2018-03-31T00:28:46.911Z,88.08
2018-03-31T00:29:46.929Z,88.27
2018-03-31T00:31:39.852Z,88.18
2018-03-31T00:32:39.850Z,88.51
2018-03-31T00:34:32.775Z,88.37
2018-03-31T00:35:32.771Z,88.37
2018-03-31T00:37:25.696Z,88.99
2018-03-31T00:38:25.687Z,88.99
2018-03-31T00:40:19.193Z,89.65
2018-03-31T00:41:18.784Z,89.56
2018-03-31T00:43:11.906Z,89.65
2018-03-31T00:44:11.944Z,89.65
2018-03-31T00:46:04.840Z,89.47
2018-03-31T00:47:04.840Z,89.47
2018-03-31T00:48:57.740Z,89.47
2018-03-31T00:49:57.813Z,89.47
2018-03-31T00:51:50.701Z,89.41
2018-03-31T00:52:50.677Z,88.84
2018-03-31T00:54:43.664Z,89.03
2018-03-31T00:55:43.594Z,89.03
2018-03-31T00:57:36.498Z,88.27
2018-03-31T00:58:36.511Z,88.37
2018-03-31T01:00:29.430Z,88.08
2018-03-31T01:01:29.431Z,87.98
2018-03-31T01:03:22.388Z,87.89
2018-03-31T01:04:22.347Z,88.46
2018-03-31T01:06:15.269Z,88.46
2018-03-31T01:07:15.269Z,89.13
2018-03-31T01:09:08.234Z,89.13
2018-03-31T01:10:08.190Z,89.32
2018-03-31T01:12:01.114Z,88.65
2018-03-31T01:13:01.107Z,89.13
2018-03-31T01:14:54.222Z,88.93
2018-03-31T01:15:54.216Z,88.27
2018-03-31T01:17:47.119Z,88.18
2018-03-31T01:18:47.138Z,88.27
2018-03-31T01:20:40.056Z,88.56
2018-03-31T01:21:40.058Z,88.56
2018-03-31T01:23:32.958Z,88.08
2018-03-31T01:24:32.977Z,88.18
2018-03-31T01:26:25.897Z,88.18
2018-03-31T01:27:25.898Z,87.98
2018-03-31T01:29:18.797Z,87.51
2018-03-31T01:30:18.813Z,87.23
2018-03-31T01:32:12.272Z,86.98
2018-03-31T01:33:11.734Z,86.75
2018-03-31T01:35:04.654Z,87.79
2018-03-31T01:36:04.651Z,87.79
2018-03-31T01:37:57.550Z,86.75
2018-03-31T01:38:57.569Z,86.84
2018-03-31T01:40:50.490Z,86.75
2018-03-31T01:41:50.491Z,86.84
2018-03-31T01:43:44.389Z,86.27
2018-03-31T01:44:44.406Z,86.46
2018-03-31T01:46:37.332Z,86.75
2018-03-31T01:47:37.327Z,86.65
2018-03-31T01:49:30.399Z,86.94
2018-03-31T01:50:30.417Z,87.60
2018-03-31T01:52:23.343Z,87.60
2018-03-31T01:53:23.343Z,87.85
2018-03-31T01:55:16.429Z,87.94
2018-03-31T01:56:16.427Z,88.23
2018-03-31T01:58:09.339Z,89.08
2018-03-31T01:59:09.386Z,88.89
2018-03-31T02:01:02.286Z,88.70
2018-03-31T02:02:02.286Z,89.18
2018-03-31T02:03:55.178Z,89.65
2018-03-31T02:04:55.199Z,89.27
2018-03-31T02:06:48.272Z,89.75
2018-03-31T02:07:48.275Z,89.18
2018-03-31T02:09:41.170Z,89.75
2018-03-31T02:10:41.187Z,89.65
2018-03-31T02:12:34.111Z,89.84
2018-03-31T02:13:34.108Z,89.37
2018-03-31T02:15:27.155Z,89.56
2018-03-31T02:16:27.031Z,89.23
2018-03-31T02:18:27.096Z,88.85
2018-03-31T02:19:19.942Z,88.94
2018-03-31T02:21:12.866Z,89.42
2018-03-31T02:22:12.862Z,89.32
2018-03-31T02:24:05.758Z,89.61
2018-03-31T02:25:05.778Z,89.70
2018-03-31T02:26:58.696Z,89.70
2018-03-31T02:27:58.690Z,89.42
2018-03-31T02:29:51.594Z,89.32
2018-03-31T02:30:51.608Z,89.99
2018-03-31T02:32:44.526Z,89.80
2018-03-31T02:33:44.526Z,89.99
2018-03-31T02:35:37.441Z,89.99
2018-03-31T02:36:37.439Z,89.94
2018-03-31T02:38:30.338Z,89.94
2018-03-31T02:39:30.352Z,90.33
2018-03-31T02:41:23.270Z,90.70
2018-03-31T02:42:23.268Z,90.61
2018-03-31T02:44:16.168Z,90.33
2018-03-31T02:45:16.187Z,90.23
2018-03-31T02:47:09.163Z,91.28
2018-03-31T02:48:09.111Z,91.08
2018-03-31T02:50:02.013Z,90.70
2018-03-31T02:51:02.024Z,91.47
2018-03-31T02:52:54.948Z,91.18
2018-03-31T02:53:54.943Z,91.08
2018-03-31T02:55:47.859Z,91.28
2018-03-31T02:56:47.857Z,90.89
2018-03-31T02:58:40.758Z,90.89
2018-03-31T02:59:40.807Z,91.37
2018-03-31T03:01:33.691Z,91.85
2018-03-31T03:02:33.689Z,91.85
2018-03-31T03:04:26.590Z,91.75
2018-03-31T03:05:26.605Z,91.75
2018-03-31T03:07:19.519Z,91.56
2018-03-31T03:08:19.520Z,91.56
2018-03-31T03:10:12.417Z,91.47
2018-03-31T03:11:12.431Z,91.56
2018-03-31T03:13:05.352Z,91.66
2018-03-31T03:14:05.348Z,91.85
2018-03-31T03:15:58.270Z,91.66
2018-03-31T03:16:58.269Z,91.47
2018-03-31T03:18:51.168Z,91.47
2018-03-31T03:19:51.184Z,91.37
2018-03-31T03:21:44.301Z,90.99
2018-03-31T03:22:44.305Z,91.18
2018-03-31T03:24:37.194Z,90.89
2018-03-31T03:25:37.217Z,90.89
2018-03-31T03:27:30.131Z,90.33
2018-03-31T03:28:30.129Z,90.52
2018-03-31T03:30:23.028Z,90.33
2018-03-31T03:31:23.049Z,90.61
2018-03-31T03:33:15.958Z,90.61
2018-03-31T03:34:15.958Z,90.33
2018-03-31T03:36:08.875Z,90.47
2018-03-31T03:37:08.873Z,90.37
2018-03-31T03:39:01.809Z,90.28
2018-03-31T03:40:01.796Z,90.28
2018-03-31T03:41:54.703Z,90.56
2018-03-31T03:42:54.703Z,90.28
2018-03-31T03:44:47.598Z,90.75
2018-03-31T03:45:47.616Z,90.28
2018-03-31T03:47:40.534Z,91.04
2018-03-31T03:48:40.529Z,90.94
2018-03-31T03:50:33.427Z,91.13
2018-03-31T03:51:33.449Z,91.04
2018-03-31T03:53:26.360Z,91.52
2018-03-31T03:54:26.358Z,91.23
2018-03-31T03:56:19.272Z,91.33
2018-03-31T03:57:19.271Z,91.80
2018-03-31T03:59:12.170Z,91.13
2018-03-31T04:00:12.186Z,91.89
2018-03-31T04:02:05.101Z,91.80
2018-03-31T04:03:05.095Z,91.89
2018-03-31T04:04:57.999Z,91.42
2018-03-31T04:05:58.011Z,91.89
2018-03-31T04:07:50.922Z,91.89
2018-03-31T04:08:50.922Z,91.71
2018-03-31T04:10:43.819Z,91.99
2018-03-31T04:11:43.838Z,91.80
2018-03-31T04:13:36.753Z,92.08
2018-03-31T04:14:36.755Z,91.99
2018-03-31T04:16:29.718Z,91.71
2018-03-31T04:17:29.667Z,91.89
2018-03-31T04:19:22.565Z,91.47
2018-03-31T04:20:22.600Z,91.42
2018-03-31T04:22:15.502Z,91.47
2018-03-31T04:23:15.499Z,91.47
2018-03-31T04:25:08.395Z,91.56
2018-03-31T04:26:08.414Z,91.56
2018-03-31T04:28:01.332Z,91.56
2018-03-31T04:29:01.328Z,91.28
2018-03-31T04:30:54.233Z,91.28
2018-03-31T04:32:01.366Z,91.28
2018-03-31T04:33:47.161Z,91.28
2018-03-31T04:34:47.161Z,91.18
2018-03-31T04:36:40.096Z,90.70
2018-03-31T04:37:40.082Z,90.80
2018-03-31T04:39:32.976Z,91.08
2018-03-31T04:40:32.993Z,90.89
2018-03-31T04:42:25.911Z,91.28
2018-03-31T04:43:25.906Z,91.28
2018-03-31T04:45:18.802Z,91.37
2018-03-31T04:46:18.817Z,91.85
2018-03-31T04:48:11.736Z,91.85
2018-03-31T04:49:11.737Z,91.85
2018-03-31T04:51:04.631Z,90.99
2018-03-31T04:52:04.650Z,91.85
2018-03-31T04:53:57.570Z,91.85
2018-03-31T04:54:57.567Z,91.85
2018-03-31T04:56:50.485Z,91.66
2018-03-31T04:57:50.484Z,91.85
2018-03-31T04:59:43.381Z,91.18
2018-03-31T05:00:43.399Z,91.37
2018-03-31T05:02:36.318Z,91.28
2018-03-31T05:03:36.315Z,91.37
2018-03-31T05:05:29.265Z,91.08
2018-03-31T05:06:29.278Z,91.08
2018-03-31T05:08:22.198Z,91.28
2018-03-31T05:09:22.192Z,91.08
2018-03-31T05:11:15.092Z,90.80
2018-03-31T05:12:15.108Z,90.80
2018-03-31T05:14:08.027Z,90.89
2018-03-31T05:15:08.025Z,91.08
2018-03-31T05:17:00.939Z,91.08
2018-03-31T05:18:00.940Z,91.08
2018-03-31T05:19:53.836Z,90.89
2018-03-31T05:20:53.965Z,91.18
2018-03-31T05:22:46.779Z,91.18
2018-03-31T05:23:46.773Z,90.89
2018-03-31T05:25:39.673Z,91.22
2018-03-31T05:26:39.689Z,91.13
2018-03-31T05:28:32.650Z,91.22
2018-03-31T05:29:32.606Z,90.47
2018-03-31T05:31:25.682Z,90.56
2018-03-31T05:32:25.703Z,90.28
2018-03-31T05:34:18.630Z,90.18
2018-03-31T05:35:18.621Z,90.37
2018-03-31T05:37:11.543Z,90.37
2018-03-31T05:38:11.540Z,90.18
2018-03-31T05:40:04.439Z,90.28
2018-03-31T05:41:04.456Z,89.99
2018-03-31T05:42:57.373Z,90.37
2018-03-31T05:43:57.375Z,90.28
2018-03-31T05:45:50.273Z,90.08
2018-03-31T05:46:50.289Z,89.99
2018-03-31T05:48:43.203Z,90.18
2018-03-31T05:49:43.231Z,90.08
2018-03-31T05:51:36.139Z,89.70
2018-03-31T05:52:36.120Z,89.42
2018-03-31T05:54:29.041Z,89.61
2018-03-31T05:55:29.041Z,89.23
2018-03-31T05:57:21.960Z,89.51
2018-03-31T05:58:21.959Z,89.23
2018-03-31T06:00:14.926Z,89.42
2018-03-31T06:01:14.876Z,89.23
2018-03-31T06:03:07.792Z,89.56
2018-03-31T06:04:07.793Z,89.08
2018-03-31T06:06:00.695Z,88.60
2018-03-31T06:07:00.711Z,88.99
2018-03-31T06:08:53.689Z,88.99
2018-03-31T06:09:53.627Z,88.37
2018-03-31T06:11:46.530Z,88.32
2018-03-31T06:12:46.550Z,88.23
2018-03-31T06:14:39.475Z,88.04
2018-03-31T06:15:39.474Z,88.13
2018-03-31T06:17:32.390Z,88.04
2018-03-31T06:18:32.388Z,87.56
2018-03-31T06:20:25.324Z,87.75
2018-03-31T06:21:25.315Z,88.04
2018-03-31T06:23:18.237Z,87.94
2018-03-31T06:24:18.237Z,88.04
2018-03-31T06:26:11.140Z,87.56
2018-03-31T06:27:11.153Z,87.65
2018-03-31T06:29:04.073Z,88.13
2018-03-31T06:30:04.079Z,87.37
2018-03-31T06:31:56.973Z,87.27
2018-03-31T06:32:56.990Z,87.18
2018-03-31T06:34:49.908Z,86.75
2018-03-31T06:35:49.909Z,86.65
2018-03-31T06:37:42.830Z,86.36
2018-03-31T06:38:42.829Z,85.89
2018-03-31T06:40:35.770Z,85.99
2018-03-31T06:41:35.756Z,85.66
2018-03-31T06:43:28.673Z,85.94
2018-03-31T06:44:28.674Z,85.85
2018-03-31T06:46:21.576Z,85.47
2018-03-31T06:47:21.594Z,85.47
2018-03-31T06:49:14.512Z,85.66
2018-03-31T06:50:14.510Z,85.37
2018-03-31T06:52:07.413Z,85.99
2018-03-31T06:53:07.432Z,85.32
2018-03-31T06:55:00.351Z,86.32
2018-03-31T06:56:00.351Z,85.99
2018-03-31T06:57:53.272Z,86.08
2018-03-31T06:58:53.273Z,86.18
2018-03-31T07:00:46.182Z,86.18
2018-03-31T07:01:46.189Z,85.60
2018-03-31T07:03:39.111Z,85.64
2018-03-31T07:04:39.109Z,85.13
2018-03-31T07:06:32.026Z,85.27
2018-03-31T07:07:32.045Z,85.17
2018-03-31T07:09:24.964Z,84.31
2018-03-31T07:10:24.964Z,84.50
2018-03-31T07:12:17.868Z,83.59
2018-03-31T07:13:17.888Z,83.59
2018-03-31T07:15:10.809Z,83.31
2018-03-31T07:16:10.808Z,82.17
2018-03-31T07:18:03.729Z,81.78
2018-03-31T07:19:03.730Z,82.17
2018-03-31T07:20:56.636Z,82.60
2018-03-31T07:21:56.654Z,82.69
2018-03-31T07:23:49.575Z,83.17
2018-03-31T07:24:49.577Z,83.07
2018-03-31T07:26:42.481Z,83.65
2018-03-31T07:27:42.499Z,83.65
2018-03-31T07:29:35.422Z,83.26
2018-03-31T07:30:35.421Z,82.60
2018-03-31T07:32:28.322Z,83.21
2018-03-31T07:33:28.342Z,83.31
2018-03-31T07:35:21.264Z,83.59
2018-03-31T07:36:21.264Z,83.21
2018-03-31T07:38:14.188Z,81.97
2018-03-31T07:39:14.190Z,81.30
2018-03-31T07:41:07.092Z,81.59
2018-03-31T07:42:07.113Z,81.97
2018-03-31T07:44:00.050Z,81.78
2018-03-31T07:45:00.041Z,82.35
2018-03-31T07:46:52.938Z,81.88
2018-03-31T07:47:52.958Z,82.17
2018-03-31T07:49:45.881Z,82.07
2018-03-31T07:50:45.881Z,82.26
2018-03-31T07:52:38.787Z,81.44
2018-03-31T07:53:38.804Z,81.54
2018-03-31T07:55:31.726Z,80.73
2018-03-31T07:56:31.731Z,80.96
2018-03-31T07:58:24.649Z,80.58
2018-03-31T07:59:24.652Z,80.58
2018-03-31T08:01:17.563Z,82.01
2018-03-31T08:02:17.581Z,81.25
2018-03-31T08:04:10.502Z,83.44
2018-03-31T08:05:10.503Z,83.35
2018-03-31T08:07:03.579Z,81.58
2018-03-31T08:08:03.600Z,80.49
2018-03-31T08:09:56.592Z,79.53
2018-03-31T08:10:56.530Z,78.49
2018-03-31T08:12:49.436Z,79.25
2018-03-31T08:13:49.454Z,79.35
2018-03-31T08:15:42.375Z,79.44
2018-03-31T08:16:42.418Z,79.35
2018-03-31T08:18:35.307Z,79.63
2018-03-31T08:19:35.302Z,79.91
2018-03-31T08:21:28.209Z,80.58
2018-03-31T08:22:28.228Z,80.39
2018-03-31T08:24:21.998Z,79.82
2018-03-31T08:25:21.996Z,79.35
2018-03-31T08:27:14.901Z,79.63
2018-03-31T08:28:14.914Z,80.68
2018-03-31T08:30:07.878Z,79.72
2018-03-31T08:31:08.211Z,80.15
2018-03-31T08:33:00.758Z,80.15
2018-03-31T08:34:00.778Z,79.38
2018-03-31T08:35:53.701Z,78.33
2018-03-31T08:36:53.734Z,76.33
2018-03-31T08:38:46.627Z,76.04
2018-03-31T08:39:46.629Z,76.42
2018-03-31T08:41:39.544Z,76.84
2018-03-31T08:42:39.555Z,77.00
2018-03-31T08:44:32.652Z,75.76
2018-03-31T08:45:32.653Z,75.47
2018-03-31T08:47:25.569Z,75.89
2018-03-31T08:48:25.588Z,75.51
2018-03-31T08:50:18.514Z,75.18
2018-03-31T08:51:19.053Z,76.52
2018-03-31T08:53:12.476Z,76.27
2018-03-31T08:54:12.443Z,76.84
2018-03-31T08:56:05.876Z,75.76
2018-03-31T08:57:05.876Z,75.47
2018-03-31T08:58:59.340Z,75.60
2018-03-31T08:59:59.301Z,74.99
2018-03-31T09:01:52.205Z,74.23
2018-03-31T09:02:52.222Z,75.09
2018-03-31T09:04:46.152Z,74.04
2018-03-31T09:05:46.151Z,73.28
2018-03-31T09:07:39.055Z,72.61
2018-03-31T09:08:39.077Z,72.71
2018-03-31T09:10:31.998Z,72.89
2018-03-31T09:11:32.003Z,72.99
2018-03-31T09:13:24.904Z,74.13
2018-03-31T09:14:24.927Z,73.08
2018-03-31T09:16:17.851Z,72.03
2018-03-31T09:17:17.857Z,72.71
2018-03-31T09:19:10.777Z,74.08
2018-03-31T09:20:10.779Z,74.55
2018-03-31T09:22:03.690Z,75.03
2018-03-31T09:23:03.721Z,73.73
2018-03-31T09:24:56.642Z,72.45
2018-03-31T09:25:56.652Z,71.59
2018-03-31T09:27:49.540Z,72.93
2018-03-31T09:28:49.560Z,73.41
2018-03-31T09:30:42.484Z,73.22
2018-03-31T09:31:42.483Z,73.22
2018-03-31T09:33:35.392Z,72.83
2018-03-31T09:34:35.414Z,70.16
2018-03-31T09:36:28.340Z,70.36
2018-03-31T09:37:28.345Z,70.54
2018-03-31T09:39:21.268Z,70.07
2018-03-31T09:40:21.264Z,68.63
2018-03-31T09:42:14.172Z,69.02
2018-03-31T09:43:14.196Z,68.35
2018-03-31T09:45:07.116Z,68.35
2018-03-31T09:46:07.120Z,69.21
2018-03-31T09:48:00.028Z,70.77
2018-03-31T09:49:00.045Z,69.68
2018-03-31T09:50:52.987Z,67.30
2018-03-31T09:51:52.975Z,67.68
2018-03-31T09:53:45.877Z,68.92
2018-03-31T09:54:45.895Z,68.82
2018-03-31T09:56:39.080Z,69.49
2018-03-31T09:57:39.029Z,68.73
2018-03-31T09:59:31.955Z,67.68
2018-03-31T10:00:31.955Z,67.21
2018-03-31T10:02:24.860Z,66.25
2018-03-31T10:03:24.882Z,66.15
2018-03-31T10:05:17.863Z,67.11
2018-03-31T10:06:17.808Z,65.01
2018-03-31T10:08:10.927Z,65.58
2018-03-31T10:09:10.970Z,66.53
2018-03-31T10:11:03.883Z,64.53
2018-03-31T10:12:03.887Z,64.25
2018-03-31T10:13:56.803Z,63.42
2018-03-31T10:14:57.814Z,62.75
2018-03-31T10:16:49.901Z,61.57
2018-03-31T10:17:49.753Z,61.66
2018-03-31T10:19:43.721Z,60.71
2018-03-31T10:20:43.692Z,60.42
2018-03-31T10:22:36.618Z,59.98
2018-03-31T10:23:36.618Z,60.74
2018-03-31T10:25:30.578Z,61.69
2018-03-31T10:26:30.543Z,61.60
2018-03-31T10:28:23.447Z,59.59
2018-03-31T10:29:23.470Z,57.87
2018-03-31T10:31:16.396Z,58.42
2018-03-31T10:32:16.400Z,59.28
2018-03-31T10:34:09.297Z,59.76
2018-03-31T10:35:09.321Z,60.90
2018-03-31T10:37:02.754Z,60.52
2018-03-31T10:38:02.738Z,60.81
2018-03-31T10:39:55.701Z,60.61
2018-03-31T10:40:55.684Z,60.61
2018-03-31T10:42:48.592Z,60.84
2018-03-31T10:43:48.620Z,60.64
2018-03-31T10:45:41.591Z,60.74
2018-03-31T10:46:41.569Z,60.39
2018-03-31T10:48:34.471Z,60.68
2018-03-31T10:49:34.599Z,60.10
2018-03-31T10:51:27.425Z,60.96
2018-03-31T10:52:27.427Z,59.34
2018-03-31T10:54:20.335Z,59.88
2018-03-31T10:55:20.354Z,60.87
2018-03-31T10:57:13.286Z,60.96
2018-03-31T10:58:13.286Z,59.53
2018-03-31T11:00:06.191Z,59.05
2018-03-31T11:01:06.216Z,58.95
2018-03-31T11:02:59.142Z,60.77
2018-03-31T11:03:59.146Z,59.81
2018-03-31T11:05:52.069Z,59.08
2018-03-31T11:06:52.076Z,58.10
2018-03-31T11:08:44.978Z,57.81
2018-03-31T11:09:52.118Z,58.10
2018-03-31T11:11:38.029Z,58.10
2018-03-31T11:12:37.929Z,57.81
2018-03-31T11:14:30.844Z,57.62
2018-03-31T11:15:30.871Z,57.33
2018-03-31T11:17:23.788Z,56.67
2018-03-31T11:18:23.790Z,56.47
2018-03-31T11:20:16.696Z,56.57
2018-03-31T11:21:16.718Z,57.46
2018-03-31T11:23:09.641Z,57.07
2018-03-31T11:24:09.646Z,57.84
2018-03-31T11:26:02.569Z,57.55
2018-03-31T11:27:02.574Z,57.36
2018-03-31T11:28:55.511Z,56.12
2018-03-31T11:29:55.506Z,55.93
2018-03-31T11:31:48.433Z,56.12
2018-03-31T11:32:48.438Z,55.16
2018-03-31T11:34:41.839Z,54.78
2018-03-31T11:35:41.861Z,55.67
2018-03-31T11:37:34.786Z,55.67
2018-03-31T11:38:34.790Z,55.47
2018-03-31T11:40:27.701Z,53.56
2018-03-31T11:41:27.718Z,53.66
2018-03-31T11:43:20.649Z,54.43
2018-03-31T11:44:20.652Z,54.43
2018-03-31T11:46:13.575Z,54.71
2018-03-31T11:47:13.637Z,54.71
2018-03-31T11:49:06.493Z,53.82
2018-03-31T11:50:06.638Z,53.53
2018-03-31T11:51:59.442Z,53.66
2018-03-31T11:52:59.446Z,52.58
2018-03-31T11:54:52.352Z,53.18
2018-03-31T11:55:52.376Z,52.89
2018-03-31T11:57:45.305Z,52.80
2018-03-31T11:58:45.308Z,52.03
2018-03-31T12:00:38.214Z,51.36
2018-03-31T12:01:38.237Z,51.93
2018-03-31T12:03:31.166Z,52.22
2018-03-31T12:04:31.168Z,53.08
2018-03-31T12:06:24.095Z,52.51
2018-03-31T12:07:24.097Z,52.99
2018-03-31T12:09:17.008Z,52.80
2018-03-31T12:10:17.026Z,53.08
2018-03-31T12:12:09.954Z,52.61
2018-03-31T12:13:09.962Z,53.08
2018-03-31T12:15:02.865Z,53.94
2018-03-31T12:16:02.883Z,54.33
2018-03-31T12:17:55.815Z,54.52
2018-03-31T12:18:55.819Z,54.43
2018-03-31T12:20:48.729Z,54.23
2018-03-31T12:21:48.752Z,53.37
2018-03-31T12:23:41.682Z,53.85
2018-03-31T12:24:41.681Z,51.56
2018-03-31T12:26:34.613Z,50.70
2018-03-31T12:27:34.616Z,51.72
2018-03-31T12:29:27.588Z,51.81
2018-03-31T12:30:27.545Z,51.53
2018-03-31T12:32:20.478Z,53.25
2018-03-31T12:33:20.523Z,52.96
2018-03-31T12:35:13.614Z,53.92
2018-03-31T12:36:13.580Z,53.44
2018-03-31T12:38:06.514Z,54.39
2018-03-31T12:39:06.514Z,54.39
2018-03-31T12:41:00.469Z,52.96
2018-03-31T12:42:00.440Z,52.96
2018-03-31T12:43:53.366Z,53.06
2018-03-31T12:44:53.369Z,53.16
2018-03-31T12:46:46.512Z,52.58
2018-03-31T12:47:46.499Z,52.29
2018-03-31T12:49:40.424Z,53.28
2018-03-31T12:50:40.421Z,53.08
2018-03-31T12:52:33.531Z,53.08
2018-03-31T12:53:33.537Z,52.80
2018-03-31T12:55:26.447Z,52.70
2018-03-31T12:56:26.470Z,53.08
2018-03-31T12:58:19.399Z,52.32
2018-03-31T12:59:19.400Z,51.84
2018-03-31T13:01:12.311Z,50.79
2018-03-31T13:02:12.333Z,50.29
2018-03-31T13:04:05.259Z,51.07
2018-03-31T13:05:05.265Z,50.70
2018-03-31T13:06:58.202Z,51.56
2018-03-31T13:07:58.204Z,51.75
2018-03-31T13:09:51.333Z,50.02
2018-03-31T13:10:51.357Z,50.60
2018-03-31T13:12:44.285Z,50.50
2018-03-31T13:13:44.287Z,50.60
2018-03-31T13:15:37.292Z,50.31
2018-03-31T13:16:37.289Z,48.49
2018-03-31T13:18:30.218Z,47.92
2018-03-31T13:19:30.221Z,48.78
2018-03-31T13:21:23.144Z,48.39
2018-03-31T13:22:23.253Z,48.68
2018-03-31T13:24:16.111Z,49.52
2018-03-31T13:25:16.090Z,49.64
2018-03-31T13:27:09.063Z,49.71
2018-03-31T13:28:09.044Z,49.74
2018-03-31T13:30:01.949Z,48.39
2018-03-31T13:31:01.974Z,47.34
2018-03-31T13:32:54.899Z,46.58
2018-03-31T13:33:54.902Z,46.94
2018-03-31T13:35:47.888Z,46.48
2018-03-31T13:36:47.842Z,46.94
2018-03-31T13:38:41.759Z,46.77
2018-03-31T13:39:41.764Z,46.96
2018-03-31T13:41:34.685Z,46.20
2018-03-31T13:42:34.694Z,46.20
2018-03-31T13:44:27.617Z,45.53
2018-03-31T13:45:27.622Z,45.43
2018-03-31T13:47:20.552Z,46.39
2018-03-31T13:48:20.552Z,46.48
2018-03-31T13:50:13.458Z,46.20
2018-03-31T13:51:13.482Z,46.30
2018-03-31T13:53:06.414Z,46.39
2018-03-31T13:54:06.411Z,46.39
2018-03-31T13:55:59.319Z,46.87
2018-03-31T13:56:59.340Z,46.30
2018-03-31T13:58:52.439Z,46.39
2018-03-31T13:59:52.441Z,45.81
2018-03-31T14:01:45.351Z,44.95
2018-03-31T14:02:45.372Z,45.72
2018-03-31T14:04:38.297Z,44.95
2018-03-31T14:05:38.302Z,45.43
2018-03-31T14:07:31.230Z,45.65
2018-03-31T14:08:31.231Z,46.22
2018-03-31T14:10:24.179Z,45.65
2018-03-31T14:11:24.164Z,45.36
2018-03-31T14:13:17.125Z,45.26
2018-03-31T14:14:17.096Z,45.17
2018-03-31T14:16:10.032Z,44.98
2018-03-31T14:17:10.042Z,44.67
2018-03-31T14:19:03.060Z,43.90
2018-03-31T14:20:03.063Z,43.62
2018-03-31T14:21:55.986Z,42.94
2018-03-31T14:22:56.008Z,42.37
2018-03-31T14:24:48.923Z,41.89
2018-03-31T14:25:48.926Z,42.56
2018-03-31T14:27:41.852Z,43.92
2018-03-31T14:28:41.896Z,43.92
2018-03-31T14:30:34.778Z,42.94
2018-03-31T14:31:34.799Z,43.52
2018-03-31T14:33:27.747Z,43.83
2018-03-31T14:34:27.740Z,43.44
2018-03-31T14:36:20.663Z,43.54
2018-03-31T14:37:20.680Z,42.97
2018-03-31T14:39:13.785Z,42.77
2018-03-31T14:40:13.777Z,43.16
2018-03-31T14:42:06.688Z,43.73
2018-03-31T14:43:06.709Z,44.02
2018-03-31T14:44:59.637Z,43.35
2018-03-31T14:45:59.637Z,45.07
2018-03-31T14:47:52.585Z,51.29
2018-03-31T14:48:52.570Z,52.99
2018-03-31T14:50:45.484Z,53.37
2018-03-31T14:51:45.506Z,53.28
2018-03-31T14:53:38.428Z,54.52
2018-03-31T14:54:38.432Z,54.59
2018-03-31T14:56:31.573Z,54.78
2018-03-31T14:57:31.600Z,54.59
2018-03-31T14:59:24.522Z,55.93
2018-03-31T15:00:24.521Z,56.69
2018-03-31T15:02:17.464Z,57.46
2018-03-31T15:03:17.482Z,57.81
2018-03-31T15:05:10.412Z,58.19
2018-03-31T15:06:10.419Z,57.90
2018-03-31T15:08:03.344Z,57.71
2018-03-31T15:09:03.337Z,57.81
2018-03-31T15:10:56.436Z,58.86
2018-03-31T15:11:56.463Z,58.67
2018-03-31T15:13:49.388Z,59.53
2018-03-31T15:14:49.391Z,59.53
2018-03-31T15:16:42.302Z,59.78
2018-03-31T15:17:42.323Z,60.74
2018-03-31T15:19:35.247Z,61.03
2018-03-31T15:20:35.253Z,61.79
2018-03-31T15:22:28.159Z,62.94
2018-03-31T15:23:28.179Z,62.37
2018-03-31T15:25:21.109Z,61.98
2018-03-31T15:26:21.115Z,62.84
2018-03-31T15:28:14.038Z,63.13
2018-03-31T15:29:14.039Z,64.28
2018-03-31T15:31:06.980Z,65.04
2018-03-31T15:32:06.973Z,64.25
2018-03-31T15:33:59.897Z,65.52
2018-03-31T15:34:59.897Z,66.19
2018-03-31T15:36:52.803Z,65.48
2018-03-31T15:37:52.822Z,65.96
2018-03-31T15:39:45.746Z,66.63
2018-03-31T15:40:45.751Z,67.58
2018-03-31T15:42:38.654Z,67.77
2018-03-31T15:43:38.676Z,67.83
2018-03-31T15:45:31.631Z,68.41
2018-03-31T15:46:31.608Z,68.98
2018-03-31T15:48:24.536Z,69.74
2018-03-31T15:49:24.541Z,69.93
2018-03-31T15:51:17.446Z,69.93
2018-03-31T15:52:17.472Z,69.43
2018-03-31T15:54:10.394Z,70.47
2018-03-31T15:55:10.396Z,70.57
2018-03-31T15:57:03.300Z,71.04
2018-03-31T15:58:03.322Z,71.04
2018-03-31T15:59:56.314Z,71.04
2018-03-31T16:00:56.271Z,71.33
2018-03-31T16:02:50.682Z,70.95
2018-03-31T16:03:50.684Z,71.81
2018-03-31T16:05:43.610Z,71.81
2018-03-31T16:06:43.613Z,72.00
2018-03-31T16:08:36.532Z,71.04
2018-03-31T16:09:36.580Z,71.04
2018-03-31T16:11:29.497Z,71.72
2018-03-31T16:12:38.154Z,71.91
2018-03-31T16:14:22.449Z,71.72
2018-03-31T16:15:22.449Z,71.81
2018-03-31T16:17:15.490Z,72.00
2018-03-31T16:18:15.476Z,72.00
2018-03-31T16:20:08.396Z,72.00
2018-03-31T16:21:08.396Z,72.00
2018-03-31T16:23:01.345Z,71.96
2018-03-31T16:24:01.322Z,71.58
2018-03-31T16:25:54.244Z,71.39
2018-03-31T16:26:54.245Z,71.68
2018-03-31T16:28:47.410Z,70.82
2018-03-31T16:29:47.400Z,71.43
2018-03-31T16:31:40.827Z,71.68
2018-03-31T16:32:40.846Z,71.58
2018-03-31T16:34:33.770Z,71.87
2018-03-31T16:35:33.775Z,71.68
2018-03-31T16:37:26.674Z,71.68
2018-03-31T16:38:26.714Z,72.16
2018-03-31T16:40:19.615Z,73.11
2018-03-31T16:41:19.615Z,73.21
2018-03-31T16:43:12.526Z,73.39
2018-03-31T16:44:12.543Z,73.17
2018-03-31T16:46:05.462Z,74.88
2018-03-31T16:47:05.462Z,74.40
2018-03-31T16:48:58.411Z,74.60
2018-03-31T16:49:58.384Z,74.50
2018-03-31T16:51:51.290Z,74.88
2018-03-31T16:52:51.307Z,74.02
2018-03-31T16:54:44.235Z,74.69
2018-03-31T16:55:44.227Z,74.79
2018-03-31T16:57:37.130Z,75.79
2018-03-31T16:58:37.149Z,75.89
2018-03-31T17:00:30.071Z,75.79
2018-03-31T17:01:30.074Z,75.70
2018-03-31T17:03:22.981Z,76.27
2018-03-31T17:04:23.002Z,76.18
2018-03-31T17:06:15.913Z,76.12
2018-03-31T17:07:15.912Z,76.27
2018-03-31T17:09:08.831Z,76.27
2018-03-31T17:10:08.829Z,76.18
2018-03-31T17:12:01.732Z,75.89
2018-03-31T17:13:01.750Z,75.79
2018-03-31T17:14:54.669Z,75.60
2018-03-31T17:15:54.670Z,76.27
2018-03-31T17:17:47.572Z,76.27
2018-03-31T17:18:47.589Z,76.27
2018-03-31T17:20:40.506Z,76.56
2018-03-31T17:21:40.506Z,75.99
2018-03-31T17:23:33.418Z,77.03
2018-03-31T17:24:33.433Z,76.94
2018-03-31T17:26:26.355Z,77.03
2018-03-31T17:27:26.352Z,76.27
2018-03-31T17:29:19.273Z,76.27
2018-03-31T17:30:19.327Z,76.27
2018-03-31T17:32:12.174Z,76.27
2018-03-31T17:33:12.192Z,76.56
2018-03-31T17:35:05.122Z,76.33
2018-03-31T17:36:05.112Z,76.90
2018-03-31T17:37:58.083Z,77.28
2018-03-31T17:38:58.028Z,76.42
2018-03-31T17:40:50.950Z,76.71
2018-03-31T17:41:51.544Z,76.42
2018-03-31T17:43:43.846Z,76.71
2018-03-31T17:44:43.862Z,76.90
2018-03-31T17:46:36.780Z,77.19
2018-03-31T17:47:36.778Z,77.28
2018-03-31T17:49:29.804Z,77.28
2018-03-31T17:50:29.697Z,77.09
2018-03-31T17:52:22.600Z,77.95
2018-03-31T17:53:22.618Z,78.10
2018-03-31T17:55:15.535Z,78.38
2018-03-31T17:56:15.610Z,78.99
2018-03-31T17:58:08.557Z,78.90
2018-03-31T17:59:08.493Z,78.23
2018-03-31T18:01:01.415Z,77.47
2018-03-31T18:02:01.373Z,77.47
2018-03-31T18:03:55.274Z,76.71
2018-03-31T18:04:55.302Z,77.00
2018-03-31T18:06:48.264Z,76.81
2018-03-31T18:07:48.207Z,77.00
2018-03-31T18:09:41.123Z,76.71
2018-03-31T18:10:41.122Z,76.33
2018-03-31T18:12:34.051Z,77.09
2018-03-31T18:13:34.079Z,77.00
2018-03-31T18:15:26.958Z,77.00
2018-03-31T18:16:26.959Z,76.14
2018-03-31T18:18:19.861Z,76.81
2018-03-31T18:19:19.878Z,76.23
2018-03-31T18:21:12.794Z,76.81
2018-03-31T18:22:12.797Z,77.00
2018-03-31T18:24:05.740Z,77.37
2018-03-31T18:25:05.707Z,76.90
2018-03-31T18:26:58.621Z,77.19
2018-03-31T18:27:58.625Z,77.24
2018-03-31T18:29:51.540Z,78.10
2018-03-31T18:30:51.567Z,78.00
2018-03-31T18:32:44.475Z,78.96
2018-03-31T18:33:44.486Z,78.48